Time;durP1;ratioP1;P1;durP2;ratioP2;P2;SDS_P1;SDS_P2;PMS_P1;PMS_P2;Temp;Humidity;BMP_temperature;BMP_pressure;BME280_temperature;BME280_humidity;BME280_pressure;Samples;Min_cycle;Max_cycle;Signal;HPM_P1;HPM_P2
2022/07/07 00:48:13;;;;;;;5.40;3.10;;;;;;;;;;5056275;28;20095;-85
2022/07/07 00:51:22;;;;;;;5.05;3.08;;;;;;;;;;5046700;28;20502;-84
2022/07/07 00:54:56;;;;;;;4.10;3.00;;;;;;;;;;5044108;28;20200;-84
2022/07/07 00:59:35;;;;;;;5.53;3.03;;;;;;;;;;5047049;28;20044;-84
2022/07/07 01:03:06;;;;;;;5.65;2.65;;;;;;;;;;4995105;28;20666;-84
2022/07/07 01:06:51;;;;;;;6.47;2.90;;;;;;;;;;4991623;28;20049;-84
2022/07/07 01:11:23;;;;;;;4.53;2.88;;;;;;;;;;4891178;29;20555;-84
2022/07/07 02:39:46;;;;;;;6.53;4.25;;;;;;;;;;5040439;28;20829;-84
2022/07/07 02:43:18;;;;;;;;;;;;;;;;;;5054896;28;20727;-84
2022/07/07 02:46:00;;;;;;;8.13;5.38;;;;;;;;;;5007503;28;20396;-83
2022/07/07 02:48:52;;;;;;;8.98;5.45;;;;;;;;;;5023594;28;20052;-83
2022/07/07 02:51:36;;;;;;;9.30;6.07;;;;;;;;;;4985517;28;20054;-83
2022/07/07 03:22:53;;;;;;;14.27;8.32;;;;;;;;;;5038662;28;20045;-84
2022/07/07 03:27:08;;;;;;;13.25;8.75;;;;;;;;;;4986451;28;20049;-84
2022/07/07 03:30:45;;;;;;;12.57;8.18;;;;;;;;;;4916887;29;20063;-84
2022/07/07 03:34:20;;;;;;;15.82;8.48;;;;;;;;;;4912763;29;20110;-84
2022/07/07 03:38:43;;;;;;;13.13;8.10;;;;;;;;;;4914363;29;20259;-84
2022/07/07 03:42:36;;;;;;;11.80;7.88;;;;;;;;;;4841359;29;20147;-84
2022/07/07 03:45:30;;;;;;;13.45;7.50;;;;;;;;;;4804551;29;20062;-84
2022/07/07 03:49:14;;;;;;;14.13;8.07;;;;;;;;;;4803276;29;20070;-84
2022/07/07 03:52:35;;;;;;;11.63;7.60;;;;;;;;;;4829479;29;20058;-84
2022/07/07 03:55:57;;;;;;;11.18;7.22;;;;;;;;;;4826019;29;20046;-83
2022/07/07 03:58:41;;;;;;;11.93;7.60;;;;;;;;;;4865757;29;20082;-83
2022/07/07 04:02:30;;;;;;;16.63;7.93;;;;;;;;;;4868216;29;20056;-84
2022/07/07 04:05:23;;;;;;;10.88;7.38;;;;;;;;;;4879062;29;20104;-84
2022/07/07 04:08:32;;;;;;;12.73;7.80;;;;;;;;;;4911713;29;20074;-84
2022/07/07 04:11:36;;;;;;;12.45;7.28;;;;;;;;;;4925361;29;20055;-84
2022/07/07 04:14:47;;;;;;;10.60;6.70;;;;;;;;;;4936839;28;20528;-84
2022/07/07 04:27:31;;;;;;;9.57;5.68;;;;;;;;;;4979622;28;20034;-84
2022/07/07 04:30:58;;;;;;;11.73;6.35;;;;;;;;;;4946366;28;20198;-84
2022/07/07 04:34:34;;;;;;;9.45;5.28;;;;;;;;;;5002158;28;20050;-84
2022/07/07 04:37:19;;;;;;;9.45;5.60;;;;;;;;;;4978826;28;20046;-83
2022/07/07 04:41:14;;;;;;;8.68;4.97;;;;;;;;;;4986777;28;20060;-85
2022/07/07 05:11:58;;;;;;;7.70;3.50;;;;;;;;;;5068266;28;20083;-86
2022/07/07 05:15:26;;;;;;;5.78;3.97;;;;;;;;;;5047188;28;20057;-85
2022/07/07 05:53:52;;;;;;;3.42;1.60;;;;;;;;;;5066831;28;20044;-84
2022/07/07 05:57:06;;;;;;;3.13;1.83;;;;;;;;;;5040523;28;20084;-84
2022/07/07 05:59:33;;;;;;;3.70;1.67;;;;;;;;;;5050048;28;20275;-83
2022/07/07 06:02:01;;;;;;;4.40;1.75;;;;;;;;;;5048973;28;20053;-85
2022/07/07 06:04:29;;;;;;;5.40;1.70;;;;;;;;;;5049147;28;20056;-84
2022/07/07 06:06:57;;;;;;;3.38;1.55;;;;;;;;;;5049319;28;20055;-85
2022/07/07 06:20:18;;;;;;;2.90;1.55;;;;;;;;;;4935429;29;20055;-83
2022/07/07 06:22:45;;;;;;;2.67;1.50;;;;;;;;;;4959366;28;20110;-84
2022/07/07 06:25:28;;;;;;;4.07;1.23;;;;;;;;;;4967256;28;20059;-83
2022/07/07 06:28:01;;;;;;;5.25;1.30;;;;;;;;;;4973823;28;20568;-85
2022/07/07 06:30:45;;;;;;;3.78;1.42;;;;;;;;;;4989929;28;20056;-83
2022/07/07 06:33:28;;;;;;;3.38;1.10;;;;;;;;;;4988552;28;20050;-85
2022/07/07 06:37:54;;;;;;;3.15;1.10;;;;;;;;;;4981953;28;20039;-84
2022/07/07 06:42:33;;;;;;;2.30;1.20;;;;;;;;;;4953745;29;20110;-84
2022/07/07 06:47:15;;;;;;;2.67;1.20;;;;;;;;;;4941344;29;20067;-84
2022/07/07 06:50:27;;;;;;;2.53;1.20;;;;;;;;;;4906124;29;20181;-86
2022/07/07 07:04:16;;;;;;;2.65;1.33;;;;;;;;;;4775836;30;20167;-84
2022/07/07 07:07:31;;;;;;;3.90;1.40;;;;;;;;;;4781695;30;20074;-84
2022/07/07 07:10:14;;;;;;;5.57;1.60;;;;;;;;;;4783557;29;20063;-83
2022/07/07 07:12:42;;;;;;;4.15;1.35;;;;;;;;;;4789546;29;20051;-83
2022/07/07 07:15:13;;;;;;;6.00;1.88;;;;;;;;;;4789419;30;20079;-83
2022/07/07 07:17:42;;;;;;;7.40;1.65;;;;;;;;;;4769206;30;20060;-82
2022/07/07 07:20:35;;;;;;;4.75;1.58;;;;;;;;;;4779203;30;20052;-83
2022/07/07 07:23:27;;;;;;;7.57;2.40;;;;;;;;;;4767705;30;20479;-83
2022/07/07 07:26:20;;;;;;;5.32;2.30;;;;;;;;;;4761736;30;20048;-83
2022/07/07 07:28:47;;;;;;;4.18;1.60;;;;;;;;;;4776448;30;20142;-83
2022/07/07 07:31:16;;;;;;;6.25;2.20;;;;;;;;;;4775890;30;20060;-83
2022/07/07 07:33:48;;;;;;;4.30;2.08;;;;;;;;;;4767906;30;20090;-83
2022/07/07 07:36:39;;;;;;;9.82;1.95;;;;;;;;;;4782607;30;20055;-83
2022/07/07 07:39:31;;;;;;;7.25;1.90;;;;;;;;;;4916851;28;20042;-83
2022/07/07 07:42:04;;;;;;;3.60;1.85;;;;;;;;;;5006041;28;20061;-83
2022/07/07 07:47:46;;;;;;;5.78;2.38;;;;;;;;;;5016453;28;20085;-83
2022/07/07 07:50:22;;;;;;;6.90;1.75;;;;;;;;;;5000295;28;20157;-83
2022/07/07 07:52:51;;;;;;;5.10;1.85;;;;;;;;;;4987258;28;20048;-86
2022/07/07 07:55:25;;;;;;;9.63;2.15;;;;;;;;;;5081088;28;20045;-83
2022/07/07 07:57:53;;;;;;;3.28;1.60;;;;;;;;;;5046496;23;20096;-95
2022/07/07 08:00:22;;;;;;;4.70;1.88;;;;;;;;;;4998514;28;20061;-93
2022/07/07 08:02:52;;;;;;;4.35;2.38;;;;;;;;;;4980880;28;20054;-93
2022/07/07 08:05:19;;;;;;;6.93;2.08;;;;;;;;;;4997130;28;20050;-93
2022/07/07 08:08:23;;;;;;;;;;;;;;;;;;;;;
2022/07/07 08:11:32;;;;;;;2.45;1.00;;;;;;;;;;4996984;28;20050;-95
2022/07/07 08:14:30;;;;;;;6.78;1.35;;;;;;;;;;4980264;28;20077;-94
2022/07/07 08:17:19;;;;;;;4.55;1.20;;;;;;;;;;4993550;28;20061;-94
2022/07/07 08:19:51;;;;;;;5.43;1.35;;;;;;;;;;4978520;28;20140;-95
2022/07/07 08:22:41;;;;;;;3.67;1.30;;;;;;;;;;4996000;28;20511;-95
2022/07/07 08:29:56;;;;;;;2.72;1.27;;;;;;;;;;4938097;29;20043;-95
2022/07/07 08:37:11;;;;;;;6.05;1.50;;;;;;;;;;4934609;29;20051;-95
2022/07/07 08:39:51;;;;;;;6.75;1.98;;;;;;;;;;4919818;29;20143;-95
2022/07/07 08:42:30;;;;;;;3.75;1.58;;;;;;;;;;4903337;29;20058;-95
2022/07/07 08:45:13;;;;;;;4.70;1.77;;;;;;;;;;4903141;29;20052;-95
2022/07/07 08:48:12;;;;;;;5.50;1.60;;;;;;;;;;4922776;29;20052;-95
2022/07/07 08:50:58;;;;;;;4.07;1.63;;;;;;;;;;4942638;29;20562;-94
2022/07/07 08:53:45;;;;;;;5.03;1.58;;;;;;;;;;4913736;29;20516;-95
2022/07/07 08:56:54;;;;;;;7.90;1.75;;;;;;;;;;4951118;28;20043;-95
2022/07/07 09:00:25;;;;;;;;;;;;;;;;;;;;;
2022/07/07 09:07:56;;;;;;;3.70;1.70;;;;;;;;;;4873984;29;20161;-94
2022/07/07 09:10:46;;;;;;;12.88;2.60;;;;;;;;;;4877502;29;20063;-95
2022/07/07 09:18:33;;;;;;;5.88;1.60;;;;;;;;;;4857247;29;20084;-94
2022/07/07 09:21:23;;;;;;;;;;;;;;;;;;4818555;29;20063;-93
2022/07/07 09:25:01;;;;;;;2.88;1.33;;;;;;;;;;4850779;29;20014;-93
2022/07/07 09:28:22;;;;;;;;;;;;;;;;;;;;;
2022/07/07 09:45:03;;;;;;;4.43;1.20;;;;;;;;;;4825324;29;20042;-95
2022/07/07 09:48:11;;;;;;;6.90;1.20;;;;;;;;;;4777739;30;20055;-95
2022/07/07 09:52:08;;;;;;;;;;;;;;;;;;;;;
2022/07/07 10:34:18;;;;;;;;;;;;;;;;;;5741512;22;15055223;-85
2022/07/07 10:47:11;;;;;;;3.70;1.25;;;;;;;;;;6405582;22;20006;-84
2022/07/07 10:49:59;;;;;;;3.25;1.40;;;;;;;;;;6403376;22;20018;-86
2022/07/07 10:52:42;;;;;;;3.78;1.60;;;;;;;;;;6391872;22;20032;-84
2022/07/07 10:55:57;;;;;;;5.72;1.40;;;;;;;;;;6336624;22;20025;-87
2022/07/07 11:00:25;;;;;;;3.75;1.35;;;;;;;;;;6332424;22;20027;-86
2022/07/07 11:03:51;;;;;;;4.70;1.20;;;;;;;;;;6281814;22;20048;-85
2022/07/07 11:07:34;;;;;;;4.80;1.30;;;;;;;;;;6319441;22;20466;-83
2022/07/07 11:18:23;;;;;;;6.03;1.50;;;;;;;;;;6340030;22;20588;-84
2022/07/07 11:21:04;;;;;;;4.57;1.25;;;;;;;;;;6339554;22;20518;-83
2022/07/07 11:23:40;;;;;;;3.95;1.10;;;;;;;;;;6340260;22;20023;-83
2022/07/07 11:26:08;;;;;;;3.42;1.33;;;;;;;;;;6322591;22;20080;-83
2022/07/07 11:29:01;;;;;;;5.85;1.33;;;;;;;;;;6334387;22;20033;-84
2022/07/07 11:31:33;;;;;;;5.60;1.20;;;;;;;;;;6342427;22;20010;-84
2022/07/07 11:34:01;;;;;;;4.93;1.10;;;;;;;;;;6381762;22;20386;-84
2022/07/07 11:36:30;;;;;;;3.63;1.50;;;;;;;;;;6407579;22;20074;-86
2022/07/07 11:39:23;;;;;;;5.53;1.25;;;;;;;;;;6377604;22;20679;-85
2022/07/07 11:42:05;;;;;;;2.88;1.25;;;;;;;;;;6404386;22;20017;-85
2022/07/07 11:45:56;;;;;;;4.50;1.20;;;;;;;;;;6404894;22;20070;-87
2022/07/07 11:50:35;;;;;;;4.00;1.20;;;;;;;;;;6174169;23;20029;-86
2022/07/07 11:55:18;;;;;;;5.05;1.08;;;;;;;;;;6174444;23;20033;-87
2022/07/07 11:59:16;;;;;;;3.30;0.80;;;;;;;;;;6172906;23;20639;-85
2022/07/07 12:04:53;;;;;;;1.60;0.63;;;;;;;;;;6184827;23;20035;-83
2022/07/07 12:07:21;;;;;;;4.43;0.80;;;;;;;;;;6184623;23;20104;-83
2022/07/07 12:09:53;;;;;;;4.10;1.02;;;;;;;;;;6159773;23;20029;-83
2022/07/07 12:12:55;;;;;;;3.50;1.02;;;;;;;;;;6173990;23;20032;-83
2022/07/07 12:15:47;;;;;;;1.45;0.80;;;;;;;;;;6183401;23;20483;-83
2022/07/07 12:18:24;;;;;;;2.72;0.60;;;;;;;;;;6183208;23;20021;-83
2022/07/07 12:21:21;;;;;;;;;;;;;;;;;;6332429;22;20022;-83
2022/07/07 12:23:51;;;;;;;2.25;0.70;;;;;;;;;;6285576;22;19918;-83
2022/07/07 12:26:26;;;;;;;10.57;1.67;;;;;;;;;;6285345;22;20023;-83
2022/07/07 12:28:59;;;;;;;3.63;1.00;;;;;;;;;;6310953;22;20126;-83
2022/07/07 12:31:51;;;;;;;3.08;0.90;;;;;;;;;;6360063;22;20021;-83
2022/07/07 12:34:22;;;;;;;6.43;1.42;;;;;;;;;;6374817;22;20021;-83
2022/07/07 12:36:49;;;;;;;5.95;1.23;;;;;;;;;;6348436;22;20013;-83
2022/07/07 12:39:24;;;;;;;6.00;1.10;;;;;;;;;;6378513;22;20021;-83
2022/07/07 12:41:55;;;;;;;5.50;1.55;;;;;;;;;;6376415;22;20013;-83
2022/07/07 12:44:47;;;;;;;;;;;;;;;;;;6383634;22;20033;-83
2022/07/07 12:53:11;;;;;;;3.95;2.17;;;;;;;;;;6415164;22;20239;-85
2022/07/07 12:57:25;;;;;;;11.15;1.70;;;;;;;;;;6315964;22;20011;-84
2022/07/07 13:00:36;;;;;;;5.20;1.50;;;;;;;;;;6312994;22;20003;-84
2022/07/07 13:03:38;;;;;;;8.25;2.30;;;;;;;;;;6309231;22;20083;-83
2022/07/07 13:06:26;;;;;;;9.95;1.90;;;;;;;;;;6324529;22;20077;-83
2022/07/07 13:09:13;;;;;;;7.20;1.67;;;;;;;;;;6261984;22;20027;-83
2022/07/07 13:11:55;;;;;;;7.03;2.17;;;;;;;;;;6218080;22;20047;-83
2022/07/07 13:14:38;;;;;;;7.43;1.60;;;;;;;;;;6284701;22;20533;-83
2022/07/07 13:17:46;;;;;;;9.02;2.05;;;;;;;;;;6311828;22;20031;-84
2022/07/07 13:20:37;;;;;;;10.93;2.30;;;;;;;;;;6261185;22;20098;-84
2022/07/07 13:23:31;;;;;;;11.73;1.67;;;;;;;;;;6306767;22;20057;-84
2022/07/07 13:26:13;;;;;;;9.10;1.83;;;;;;;;;;6306357;22;20019;-84
2022/07/07 13:29:49;;;;;;;7.70;1.60;;;;;;;;;;6270778;22;20055;-84
2022/07/07 13:33:01;;;;;;;9.85;1.90;;;;;;;;;;6303004;22;20023;-84
2022/07/07 13:36:24;;;;;;;8.73;1.95;;;;;;;;;;6301449;22;20030;-84
2022/07/07 13:39:16;;;;;;;8.50;1.90;;;;;;;;;;6353216;22;20035;-84
2022/07/07 13:42:05;;;;;;;9.30;1.60;;;;;;;;;;6343997;22;20018;-84
2022/07/07 13:48:48;;;;;;;9.15;1.60;;;;;;;;;;6336754;22;20026;-84
2022/07/07 13:51:50;;;;;;;8.57;2.35;;;;;;;;;;6257663;23;20012;-82
2022/07/07 13:54:33;;;;;;;10.13;1.75;;;;;;;;;;6222919;23;20031;-84
2022/07/07 13:57:45;;;;;;;8.52;2.00;;;;;;;;;;6248930;23;20078;-84
2022/07/07 14:00:28;;;;;;;15.13;2.22;;;;;;;;;;6236360;23;20059;-83
2022/07/07 14:03:30;;;;;;;7.25;1.67;;;;;;;;;;6166674;23;20375;-83
2022/07/07 14:06:12;;;;;;;9.88;2.50;;;;;;;;;;6173812;23;20021;-83
2022/07/07 14:08:55;;;;;;;10.57;2.22;;;;;;;;;;6176576;23;20029;-84
2022/07/07 14:11:55;;;;;;;12.25;2.28;;;;;;;;;;6153963;23;20009;-84
2022/07/07 14:14:45;;;;;;;7.47;2.20;;;;;;;;;;6176506;23;20033;-84
2022/07/07 14:18:58;;;;;;;9.57;1.92;;;;;;;;;;6072799;23;20327;-84
2022/07/07 14:23:36;;;;;;;11.05;2.47;;;;;;;;;;6130702;23;20485;-84
2022/07/07 14:28:19;;;;;;;7.22;1.50;;;;;;;;;;6055916;23;20054;-84
2022/07/07 14:33:01;;;;;;;6.53;1.70;;;;;;;;;;6056284;23;20050;-84
2022/07/07 14:37:41;;;;;;;7.80;1.67;;;;;;;;;;6144313;23;20501;-84
2022/07/07 14:42:15;;;;;;;8.23;1.80;;;;;;;;;;6143927;23;20026;-84
2022/07/07 14:45:41;;;;;;;10.00;1.83;;;;;;;;;;6123496;23;20048;-84
2022/07/07 14:48:34;;;;;;;11.07;1.80;;;;;;;;;;6133349;23;20026;-84
2022/07/07 14:51:16;;;;;;;8.07;1.42;;;;;;;;;;6157860;23;20028;-83
2022/07/07 14:53:58;;;;;;;10.35;2.60;;;;;;;;;;6164456;23;20450;-83
2022/07/07 14:57:10;;;;;;;7.53;1.80;;;;;;;;;;6154036;23;20108;-84
2022/07/07 14:59:57;;;;;;;9.38;1.77;;;;;;;;;;6127006;23;20115;-84
2022/07/07 15:02:40;;;;;;;10.23;1.80;;;;;;;;;;6183843;23;20032;-84
2022/07/07 15:05:25;;;;;;;;;;;;;;;;;;6178308;22;20148;-85
2022/07/07 15:08:35;;;;;;;6.40;1.30;;;;;;;;;;6311240;22;19993;-84
2022/07/07 15:13:05;;;;;;;6.85;1.35;;;;;;;;;;6398697;22;20055;-86
2022/07/07 15:22:23;;;;;;;11.13;1.60;;;;;;;;;;6246581;23;20054;-86
2022/07/07 15:31:40;;;;;;;9.20;2.47;;;;;;;;;;6065300;23;20093;-85
2022/07/07 15:34:58;;;;;;;10.20;1.45;;;;;;;;;;6021772;23;20857;-86
2022/07/07 15:47:46;;;;;;;8.68;1.48;;;;;;;;;;5992341;23;20030;-83
2022/07/07 15:51:11;;;;;;;12.73;2.15;;;;;;;;;;6045325;23;20467;-83
2022/07/07 15:55:11;;;;;;;7.00;1.48;;;;;;;;;;5971138;24;20128;-85
2022/07/07 15:59:25;;;;;;;12.48;1.67;;;;;;;;;;6000154;23;20023;-84
2022/07/07 16:04:33;;;;;;;12.13;1.98;;;;;;;;;;5999681;23;20042;-84
2022/07/07 16:06:31;;;;;;;13.45;2.00;;;;;;;;;;6044155;23;20030;-83
2022/07/07 16:09:00;;;;;;;15.65;2.03;;;;;;;;;;6102767;23;20029;-83
2022/07/07 16:11:28;;;;;;;9.43;2.28;;;;;;;;;;6156555;23;20042;-83
2022/07/07 16:13:56;;;;;;;8.82;1.90;;;;;;;;;;6129125;23;20029;-82
2022/07/07 16:16:29;;;;;;;14.32;2.60;;;;;;;;;;6124787;23;20022;-83
2022/07/07 16:18:57;;;;;;;11.43;2.38;;;;;;;;;;6121727;23;20367;-82
2022/07/07 16:21:51;;;;;;;10.35;1.88;;;;;;;;;;6140974;23;20025;-83
2022/07/07 16:24:32;;;;;;;14.85;2.20;;;;;;;;;;6209714;23;20127;-82
2022/07/07 16:27:13;;;;;;;6.88;1.65;;;;;;;;;;6210588;23;20115;-82
2022/07/07 16:29:57;;;;;;;9.18;2.08;;;;;;;;;;6344260;22;20019;-81
2022/07/07 16:32:29;;;;;;;11.32;1.77;;;;;;;;;;6376413;22;20014;-82
2022/07/07 16:34:58;;;;;;;11.63;1.98;;;;;;;;;;6341303;22;20018;-83
2022/07/07 16:37:25;;;;;;;9.57;1.70;;;;;;;;;;6402400;22;20074;-83
2022/07/07 16:39:53;;;;;;;10.13;2.53;;;;;;;;;;6414392;22;20058;-83
2022/07/07 16:42:26;;;;;;;12.18;2.10;;;;;;;;;;6410981;22;20113;-83
2022/07/07 16:45:18;;;;;;;7.93;1.55;;;;;;;;;;6411203;22;20062;-83
2022/07/07 16:47:46;;;;;;;16.98;2.28;;;;;;;;;;6404621;22;20074;-83
2022/07/07 16:50:13;;;;;;;13.02;3.15;;;;;;;;;;6384100;22;20018;-83
2022/07/07 16:52:45;;;;;;;9.63;1.98;;;;;;;;;;6414059;22;20013;-84
2022/07/07 16:55:17;;;;;;;9.07;1.70;;;;;;;;;;6411572;22;20017;-83
2022/07/07 16:57:45;;;;;;;10.38;1.85;;;;;;;;;;6419844;22;20622;-83
2022/07/07 17:00:14;;;;;;;16.83;2.60;;;;;;;;;;6366024;22;20018;-83
2022/07/07 17:02:41;;;;;;;13.63;2.40;;;;;;;;;;6373651;22;20132;-83
2022/07/07 17:05:13;;;;;;;12.70;2.10;;;;;;;;;;6380216;22;20407;-83
2022/07/07 17:07:42;;;;;;;14.18;2.45;;;;;;;;;;6369288;22;20020;-84
2022/07/07 17:10:10;;;;;;;6.10;1.80;;;;;;;;;;6404521;22;20014;-83
2022/07/07 17:12:55;;;;;;;15.07;2.55;;;;;;;;;;6366458;22;20013;-82
2022/07/07 17:16:29;;;;;;;9.43;2.00;;;;;;;;;;6389109;22;20036;-83
2022/07/07 17:20:25;;;;;;;15.27;2.40;;;;;;;;;;6389931;22;20449;-83
2022/07/07 17:22:53;;;;;;;13.73;2.65;;;;;;;;;;6401267;22;20044;-83
2022/07/07 17:25:45;;;;;;;8.90;2.10;;;;;;;;;;6404418;22;20017;-84
2022/07/07 17:28:13;;;;;;;11.13;1.77;;;;;;;;;;6402130;22;20022;-84
2022/07/07 17:31:00;;;;;;;13.82;2.67;;;;;;;;;;6378536;22;20017;-82
2022/07/07 17:33:31;;;;;;;11.57;2.17;;;;;;;;;;6375995;22;20020;-83
2022/07/07 17:36:23;;;;;;;16.23;3.05;;;;;;;;;;6404035;22;20010;-83
2022/07/07 17:38:51;;;;;;;10.88;2.28;;;;;;;;;;6364478;22;20022;-83
2022/07/07 17:41:19;;;;;;;12.18;2.70;;;;;;;;;;6404282;22;20353;-82
2022/07/07 17:44:11;;;;;;;11.32;2.05;;;;;;;;;;6404324;22;20150;-83
2022/07/07 17:46:43;;;;;;;16.45;2.50;;;;;;;;;;6375140;22;20092;-83
2022/07/07 17:49:11;;;;;;;15.02;2.80;;;;;;;;;;6403973;22;20026;-83
2022/07/07 17:51:40;;;;;;;17.67;2.65;;;;;;;;;;6376528;22;20025;-83
2022/07/07 17:54:14;;;;;;;11.30;2.50;;;;;;;;;;6403727;22;20018;-82
2022/07/07 17:56:42;;;;;;;11.55;2.30;;;;;;;;;;6412805;22;20014;-82
2022/07/07 17:59:33;;;;;;;8.95;2.20;;;;;;;;;;6404294;22;20048;-83
2022/07/07 18:02:02;;;;;;;12.23;2.63;;;;;;;;;;6371140;22;20025;-83
2022/07/07 18:04:29;;;;;;;12.13;2.28;;;;;;;;;;6375467;22;20364;-83
2022/07/07 18:06:57;;;;;;;13.50;2.50;;;;;;;;;;6349418;22;20022;-83
2022/07/07 18:09:26;;;;;;;14.40;2.38;;;;;;;;;;6364821;22;20063;-82
2022/07/07 18:11:53;;;;;;;13.55;2.10;;;;;;;;;;6402689;22;20505;-83
2022/07/07 18:14:53;;;;;;;16.25;2.70;;;;;;;;;;6403151;22;20021;-83
2022/07/07 18:17:21;;;;;;;13.98;2.13;;;;;;;;;;6405169;22;20326;-83
2022/07/07 18:19:53;;;;;;;10.07;2.42;;;;;;;;;;6403153;22;20066;-83
2022/07/07 18:23:11;;;;;;;10.60;2.65;;;;;;;;;;6404642;22;20010;-82
2022/07/07 18:25:39;;;;;;;16.23;2.38;;;;;;;;;;6276261;22;20051;-83
2022/07/07 18:28:11;;;;;;;13.50;2.72;;;;;;;;;;6251056;22;20030;-83
2022/07/07 18:30:44;;;;;;;13.95;2.58;;;;;;;;;;6280519;22;20403;-82
2022/07/07 18:33:12;;;;;;;16.75;2.38;;;;;;;;;;6230398;22;20020;-82
2022/07/07 18:35:39;;;;;;;13.85;2.45;;;;;;;;;;6277372;22;20069;-82
2022/07/07 18:38:08;;;;;;;14.35;2.90;;;;;;;;;;6275058;22;20478;-83
2022/07/07 18:40:36;;;;;;;17.83;2.65;;;;;;;;;;6250833;22;20020;-82
2022/07/07 18:43:04;;;;;;;12.77;2.40;;;;;;;;;;6276332;22;20183;-81
2022/07/07 18:45:55;;;;;;;16.30;2.90;;;;;;;;;;6276007;22;20037;-81
2022/07/07 18:48:23;;;;;;;10.68;2.83;;;;;;;;;;6276093;22;20024;-82
2022/07/07 18:51:33;;;;;;;16.83;2.90;;;;;;;;;;6276943;22;20051;-81
2022/07/07 18:53:44;;;;;;;15.98;3.03;;;;;;;;;;6276478;22;20120;-81
2022/07/07 18:56:14;;;;;;;13.35;2.90;;;;;;;;;;6276414;22;20106;-82
2022/07/07 18:58:44;;;;;;;13.70;2.60;;;;;;;;;;6221457;22;20098;-81
2022/07/07 19:01:12;;;;;;;12.35;2.60;;;;;;;;;;6275793;22;20031;-81
2022/07/07 19:03:39;;;;;;;10.68;2.25;;;;;;;;;;6275965;22;20026;-81
2022/07/07 19:06:07;;;;;;;11.50;2.60;;;;;;;;;;6277066;22;20035;-82
2022/07/07 19:08:35;;;;;;;19.27;2.60;;;;;;;;;;6283240;22;20165;-81
2022/07/07 19:11:08;;;;;;;7.20;2.08;;;;;;;;;;6307427;22;20038;-81
2022/07/07 19:13:42;;;;;;;9.90;2.17;;;;;;;;;;6307072;22;20023;-81
2022/07/07 19:16:16;;;;;;;16.48;2.85;;;;;;;;;;6366371;22;20101;-81
2022/07/07 19:18:44;;;;;;;11.13;2.20;;;;;;;;;;6340825;22;20029;-82
2022/07/07 19:21:12;;;;;;;17.33;2.90;;;;;;;;;;6405324;22;20096;-82
2022/07/07 19:23:43;;;;;;;17.33;3.15;;;;;;;;;;6404108;22;20010;-87
2022/07/07 19:26:11;;;;;;;13.10;2.20;;;;;;;;;;6376207;22;20014;-82
2022/07/07 19:28:40;;;;;;;8.93;2.08;;;;;;;;;;6376484;22;20086;-82
2022/07/07 19:31:07;;;;;;;11.13;2.58;;;;;;;;;;6350623;22;20026;-82
2022/07/07 19:33:37;;;;;;;15.80;2.63;;;;;;;;;;6403828;22;20013;-82
2022/07/07 19:36:06;;;;;;;13.40;2.63;;;;;;;;;;6405651;22;20022;-82
2022/07/07 19:38:37;;;;;;;14.80;3.88;;;;;;;;;;6406154;22;20492;-81
2022/07/07 19:41:08;;;;;;;17.13;2.80;;;;;;;;;;6403912;22;20018;-84
2022/07/07 19:43:51;;;;;;;15.75;2.63;;;;;;;;;;6342440;22;20017;-84
2022/07/07 19:47:04;;;;;;;17.30;3.22;;;;;;;;;;6393360;22;20017;-84
2022/07/07 19:49:47;;;;;;;12.80;2.28;;;;;;;;;;6372423;22;20026;-85
2022/07/07 19:52:35;;;;;;;15.70;3.00;;;;;;;;;;6379141;22;20014;-86
2022/07/07 19:55:06;;;;;;;16.65;2.40;;;;;;;;;;6377826;22;20063;-84
2022/07/07 19:57:47;;;;;;;21.27;2.67;;;;;;;;;;6375105;22;20037;-83
2022/07/07 20:00:20;;;;;;;15.45;2.00;;;;;;;;;;6405008;22;20017;-84
2022/07/07 20:03:11;;;;;;;15.82;3.08;;;;;;;;;;6356660;22;20013;-84
2022/07/07 20:07:24;;;;;;;18.10;3.28;;;;;;;;;;6394106;22;20025;-83
2022/07/07 20:11:40;;;;;;;13.52;2.45;;;;;;;;;;6326531;22;20103;-83
2022/07/07 20:14:26;;;;;;;26.88;4.20;;;;;;;;;;6244199;22;20513;-84
2022/07/07 20:17:07;;;;;;;16.00;2.15;;;;;;;;;;6194066;22;20020;-84
2022/07/07 20:20:00;;;;;;;13.35;2.35;;;;;;;;;;6283734;22;20042;-83
2022/07/07 20:23:00;;;;;;;20.50;2.67;;;;;;;;;;6283856;22;20125;-83
2022/07/07 20:25:28;;;;;;;13.30;2.78;;;;;;;;;;6282323;22;20031;-84
2022/07/07 20:27:55;;;;;;;14.65;2.80;;;;;;;;;;6274254;22;20020;-84
2022/07/07 20:30:25;;;;;;;17.48;2.53;;;;;;;;;;6275086;22;20542;-84
2022/07/07 20:32:53;;;;;;;13.77;2.97;;;;;;;;;;6248527;22;20020;-85
2022/07/07 20:36:46;;;;;;;13.20;2.28;;;;;;;;;;6234617;23;20032;-84
2022/07/07 20:40:19;;;;;;;14.43;2.92;;;;;;;;;;6236129;23;20032;-84
